createdAt,value
2019-03-15T00:00:34.111Z,6.91
2019-03-15T00:01:34.183Z,6.94
2019-03-15T00:02:34.130Z,6.95
2019-03-15T00:03:34.190Z,6.95
2019-03-15T00:04:34.192Z,6.94
2019-03-15T00:05:34.235Z,6.93
2019-03-15T00:06:34.191Z,6.90
2019-03-15T00:07:34.193Z,6.87
2019-03-15T00:08:34.181Z,6.86
2019-03-15T00:09:34.192Z,6.84
2019-03-15T00:10:34.191Z,6.87
2019-03-15T00:11:34.192Z,6.93
2019-03-15T00:12:34.129Z,6.95
2019-03-15T00:13:34.199Z,6.97
2019-03-15T00:14:34.185Z,7.00
2019-03-15T00:15:34.123Z,7.00
2019-03-15T00:16:34.203Z,7.00
2019-03-15T00:17:34.198Z,6.98
2019-03-15T00:18:34.138Z,6.98
2019-03-15T00:19:34.205Z,6.97
2019-03-15T00:20:34.207Z,6.98
2019-03-15T00:21:34.201Z,6.97
2019-03-15T00:22:34.200Z,6.98
2019-03-15T00:23:34.202Z,6.97
2019-03-15T00:24:34.210Z,6.94
2019-03-15T00:25:34.200Z,6.90
2019-03-15T00:26:34.073Z,6.90
2019-03-15T00:27:34.095Z,6.87
2019-03-15T00:28:34.066Z,6.84
2019-03-15T00:29:34.181Z,6.81
2019-03-15T00:30:34.103Z,6.81
2019-03-15T00:31:34.101Z,6.78
2019-03-15T00:32:34.075Z,6.78
2019-03-15T00:33:34.142Z,6.78
2019-03-15T00:34:34.131Z,6.79
2019-03-15T00:35:34.146Z,6.81
2019-03-15T00:36:34.206Z,6.84
2019-03-15T00:37:34.140Z,6.82
2019-03-15T00:38:34.148Z,6.84
2019-03-15T00:39:34.141Z,6.90
2019-03-15T00:40:34.213Z,6.95
2019-03-15T00:41:34.222Z,6.95
2019-03-15T00:42:34.576Z,6.95
2019-03-15T00:43:34.145Z,6.94
2019-03-15T00:44:34.217Z,6.90
2019-03-15T00:45:34.220Z,6.89
2019-03-15T00:46:34.205Z,6.89
2019-03-15T00:47:34.204Z,6.90
2019-03-15T00:48:34.116Z,6.93
2019-03-15T00:49:34.131Z,6.94
2019-03-15T00:50:34.107Z,6.94
2019-03-15T00:51:34.202Z,6.95
2019-03-15T00:52:34.211Z,6.94
2019-03-15T00:53:34.138Z,6.91
2019-03-15T00:54:34.235Z,6.91
2019-03-15T00:55:34.180Z,6.91
2019-03-15T00:56:34.144Z,6.91
2019-03-15T00:57:34.156Z,6.93
2019-03-15T00:58:34.214Z,6.95
2019-03-15T00:59:34.149Z,7.00
2019-03-15T01:00:34.149Z,6.95
2019-03-15T01:01:34.217Z,6.94
2019-03-15T01:02:34.152Z,6.90
2019-03-15T01:03:34.263Z,6.90
2019-03-15T01:04:34.219Z,6.89
2019-03-15T01:05:34.152Z,6.87
2019-03-15T01:06:34.155Z,6.87
2019-03-15T01:07:34.098Z,6.86
2019-03-15T01:08:34.086Z,6.86
2019-03-15T01:09:34.179Z,6.84
2019-03-15T01:10:34.184Z,6.86
2019-03-15T01:11:34.314Z,6.87
2019-03-15T01:12:34.158Z,6.90
2019-03-15T01:13:34.152Z,6.91
2019-03-15T01:14:34.187Z,6.95
2019-03-15T01:15:34.152Z,6.95
2019-03-15T01:16:34.763Z,6.95
2019-03-15T01:17:34.239Z,6.95
2019-03-15T01:18:34.229Z,6.94
2019-03-15T01:19:34.231Z,6.98
2019-03-15T01:20:34.237Z,7.00
2019-03-15T01:21:34.163Z,7.01
2019-03-15T01:22:34.246Z,7.01
2019-03-15T01:23:34.192Z,7.04
2019-03-15T01:24:34.162Z,7.04
2019-03-15T01:25:34.291Z,7.02
2019-03-15T01:26:34.260Z,7.04
2019-03-15T01:27:34.189Z,7.04
2019-03-15T01:28:34.258Z,7.04
2019-03-15T01:29:34.246Z,7.05
2019-03-15T01:30:34.248Z,7.04
2019-03-15T01:31:34.180Z,7.04
2019-03-15T01:32:34.248Z,7.07
2019-03-15T01:33:34.193Z,7.08
2019-03-15T01:34:34.181Z,7.07
2019-03-15T01:35:34.199Z,7.07
2019-03-15T01:36:34.179Z,7.08
2019-03-15T01:37:34.229Z,7.08
2019-03-15T01:38:34.140Z,7.08
2019-03-15T01:39:34.240Z,7.05
2019-03-15T01:40:34.205Z,7.04
2019-03-15T01:41:34.111Z,7.05
2019-03-15T01:42:34.169Z,7.07
2019-03-15T01:43:34.199Z,7.08
2019-03-15T01:44:34.229Z,7.09
2019-03-15T01:45:34.109Z,7.08
2019-03-15T01:46:34.184Z,7.08
2019-03-15T01:47:34.253Z,7.08
2019-03-15T01:48:34.181Z,7.09
2019-03-15T01:49:34.255Z,7.09
2019-03-15T01:50:34.187Z,7.09
2019-03-15T01:51:34.149Z,7.11
2019-03-15T01:52:34.254Z,7.08
2019-03-15T01:53:34.194Z,7.08
2019-03-15T01:54:34.190Z,7.08
2019-03-15T01:55:34.273Z,7.09
2019-03-15T01:56:34.186Z,7.12
2019-03-15T01:57:34.163Z,7.15
2019-03-15T01:58:34.202Z,7.18
2019-03-15T01:59:34.232Z,7.19
2019-03-15T02:00:34.254Z,7.20
2019-03-15T02:01:34.135Z,7.19
2019-03-15T02:02:34.258Z,7.19
2019-03-15T02:03:34.229Z,7.19
2019-03-15T02:04:34.202Z,7.18
2019-03-15T02:05:34.197Z,7.18
2019-03-15T02:06:34.216Z,7.16
2019-03-15T02:07:34.572Z,7.15
2019-03-15T02:08:34.103Z,7.16
2019-03-15T02:09:34.144Z,7.16
2019-03-15T02:10:34.177Z,7.15
2019-03-15T02:11:34.221Z,7.12
2019-03-15T02:12:34.213Z,7.11
2019-03-15T02:13:34.244Z,7.09
2019-03-15T02:14:34.212Z,7.09
2019-03-15T02:15:34.157Z,7.11
2019-03-15T02:16:34.545Z,7.08
2019-03-15T02:17:34.221Z,7.07
2019-03-15T02:18:34.210Z,7.07
2019-03-15T02:19:34.979Z,7.05
2019-03-15T02:20:34.213Z,7.05
2019-03-15T02:21:34.224Z,7.02
2019-03-15T02:22:34.291Z,7.01
2019-03-15T02:23:34.182Z,7.01
2019-03-15T02:24:34.283Z,7.00
2019-03-15T02:25:34.215Z,7.00
2019-03-15T02:26:34.283Z,7.00
2019-03-15T02:27:34.301Z,7.00
2019-03-15T02:28:34.217Z,6.98
2019-03-15T02:29:34.289Z,6.97
2019-03-15T02:30:34.580Z,7.07
2019-03-15T02:31:34.312Z,7.08
2019-03-15T02:32:34.310Z,7.09
2019-03-15T02:33:34.318Z,7.09
2019-03-15T02:34:34.222Z,7.09
2019-03-15T02:35:34.226Z,7.09
2019-03-15T02:36:34.288Z,7.08
2019-03-15T02:37:34.228Z,7.07
2019-03-15T02:38:34.229Z,7.04
2019-03-15T02:39:34.293Z,7.02
2019-03-15T02:40:34.219Z,7.01
2019-03-15T02:41:34.292Z,7.00
2019-03-15T02:42:34.224Z,6.98
2019-03-15T02:43:34.237Z,6.98
2019-03-15T02:44:34.300Z,6.98
2019-03-15T02:45:34.301Z,6.97
2019-03-15T02:46:34.228Z,6.97
2019-03-15T02:47:34.309Z,6.98
2019-03-15T02:48:34.226Z,6.98
2019-03-15T02:49:34.973Z,7.00
2019-03-15T02:50:34.297Z,6.98
2019-03-15T02:51:34.287Z,6.98
2019-03-15T02:52:34.196Z,6.98
2019-03-15T02:53:34.861Z,7.00
2019-03-15T02:54:34.262Z,7.01
2019-03-15T02:55:34.310Z,7.01
2019-03-15T02:56:34.394Z,7.00
2019-03-15T02:57:35.494Z,7.02
2019-03-15T02:58:34.225Z,7.04
2019-03-15T02:59:34.303Z,7.01
2019-03-15T03:00:34.235Z,7.02
2019-03-15T03:01:34.307Z,7.04
2019-03-15T03:02:34.236Z,7.04
2019-03-15T03:03:34.304Z,7.05
2019-03-15T03:04:34.233Z,7.05
2019-03-15T03:05:34.669Z,7.07
2019-03-15T03:06:34.205Z,7.05
2019-03-15T03:07:34.264Z,7.05
2019-03-15T03:08:34.159Z,7.05
2019-03-15T03:09:34.413Z,7.07
2019-03-15T03:10:34.221Z,7.07
2019-03-15T03:11:34.220Z,7.07
2019-03-15T03:12:34.213Z,7.07
2019-03-15T03:13:34.259Z,7.05
2019-03-15T03:14:34.216Z,7.05
2019-03-15T03:15:34.289Z,7.05
2019-03-15T03:16:34.317Z,7.02
2019-03-15T03:17:34.313Z,7.02
2019-03-15T03:18:34.706Z,7.05
2019-03-15T03:19:34.309Z,7.07
2019-03-15T03:20:34.197Z,7.07
2019-03-15T03:21:34.184Z,7.07
2019-03-15T03:22:34.229Z,7.09
2019-03-15T03:23:34.310Z,7.12
2019-03-15T03:24:34.314Z,7.11
2019-03-15T03:25:34.320Z,7.11
2019-03-15T03:26:34.218Z,7.11
2019-03-15T03:27:34.380Z,7.09
2019-03-15T03:28:34.307Z,7.12
2019-03-15T03:29:34.325Z,7.11
2019-03-15T03:30:34.343Z,7.11
2019-03-15T03:31:34.314Z,7.13
2019-03-15T03:32:34.326Z,7.13
2019-03-15T03:33:34.238Z,7.11
2019-03-15T03:34:34.821Z,7.09
2019-03-15T03:35:34.240Z,7.09
2019-03-15T03:36:34.281Z,7.09
2019-03-15T03:37:34.335Z,7.11
2019-03-15T03:38:34.271Z,7.09
2019-03-15T03:39:34.725Z,7.11
2019-03-15T03:40:34.268Z,7.09
2019-03-15T03:41:34.342Z,7.12
2019-03-15T03:42:34.428Z,7.09
2019-03-15T03:43:34.351Z,7.09
2019-03-15T03:44:34.343Z,7.09
2019-03-15T03:45:34.388Z,7.08
2019-03-15T03:46:34.338Z,7.11
2019-03-15T03:47:34.270Z,7.11
2019-03-15T03:48:35.450Z,7.12
2019-03-15T03:49:34.270Z,7.12
2019-03-15T03:50:34.270Z,7.13
2019-03-15T03:51:34.343Z,7.13
2019-03-15T03:52:34.267Z,7.12
2019-03-15T03:53:34.350Z,7.12
2019-03-15T03:54:34.340Z,7.13
2019-03-15T03:55:34.275Z,7.13
2019-03-15T03:56:34.341Z,7.12
2019-03-15T03:57:34.271Z,7.13
2019-03-15T03:58:34.412Z,7.15
2019-03-15T03:59:34.347Z,7.15
2019-03-15T04:00:34.278Z,7.15
2019-03-15T04:01:34.347Z,7.15
2019-03-15T04:02:34.269Z,7.16
2019-03-15T04:03:34.344Z,7.15
2019-03-15T04:04:34.280Z,7.15
2019-03-15T04:05:34.279Z,7.15
2019-03-15T04:06:34.289Z,7.13
2019-03-15T04:07:34.289Z,7.12
2019-03-15T04:08:34.300Z,7.12
2019-03-15T04:09:34.369Z,7.12
2019-03-15T04:10:34.376Z,7.12
2019-03-15T04:11:34.364Z,7.15
2019-03-15T04:12:34.336Z,7.16
2019-03-15T04:13:34.367Z,7.16
2019-03-15T04:14:34.369Z,7.16
2019-03-15T04:15:34.375Z,7.20
2019-03-15T04:16:34.368Z,7.22
2019-03-15T04:17:34.371Z,7.20
2019-03-15T04:18:34.298Z,7.20
2019-03-15T04:19:34.310Z,7.19
2019-03-15T04:20:34.363Z,7.18
2019-03-15T04:21:34.382Z,7.16
2019-03-15T04:22:34.371Z,7.18
2019-03-15T04:23:34.369Z,7.16
2019-03-15T04:24:34.376Z,7.13
2019-03-15T04:25:34.381Z,7.12
2019-03-15T04:26:34.228Z,7.12
2019-03-15T04:27:34.218Z,7.13
2019-03-15T04:28:34.339Z,7.11
2019-03-15T04:29:34.289Z,7.11
2019-03-15T04:30:34.275Z,7.09
2019-03-15T04:31:34.281Z,7.09
2019-03-15T04:32:34.448Z,7.07
2019-03-15T04:33:34.299Z,7.05
2019-03-15T04:34:34.239Z,7.04
2019-03-15T04:35:34.225Z,7.05
2019-03-15T04:36:34.330Z,7.05
2019-03-15T04:37:34.379Z,7.05
2019-03-15T04:38:34.338Z,7.04
2019-03-15T04:39:34.384Z,7.05
2019-03-15T04:40:34.386Z,7.08
2019-03-15T04:41:34.333Z,7.09
2019-03-15T04:42:34.323Z,7.09
2019-03-15T04:43:34.392Z,7.09
2019-03-15T04:44:34.327Z,7.09
2019-03-15T04:45:34.392Z,7.09
2019-03-15T04:46:34.453Z,7.09
2019-03-15T04:47:34.293Z,7.11
2019-03-15T04:48:34.301Z,7.11
2019-03-15T04:49:34.332Z,7.09
2019-03-15T04:50:34.306Z,7.09
2019-03-15T04:51:34.287Z,7.11
2019-03-15T04:52:34.272Z,7.09
2019-03-15T04:53:34.241Z,7.12
2019-03-15T04:54:34.275Z,7.13
2019-03-15T04:55:34.287Z,7.12
2019-03-15T04:56:34.320Z,7.12
2019-03-15T04:57:34.398Z,7.11
2019-03-15T04:58:34.334Z,7.09
2019-03-15T04:59:34.328Z,7.09
2019-03-15T05:00:34.400Z,7.07
2019-03-15T05:01:34.405Z,7.07
2019-03-15T05:02:34.393Z,7.05
2019-03-15T05:03:34.405Z,7.04
2019-03-15T05:04:34.336Z,7.02
2019-03-15T05:05:34.334Z,7.04
2019-03-15T05:06:34.355Z,7.04
2019-03-15T05:07:34.407Z,7.04
2019-03-15T05:08:34.406Z,7.02
2019-03-15T05:09:34.410Z,7.00
2019-03-15T05:10:34.336Z,7.00
2019-03-15T05:11:34.393Z,7.01
2019-03-15T05:12:34.334Z,7.00
2019-03-15T05:13:34.360Z,6.98
2019-03-15T05:14:34.417Z,7.00
2019-03-15T05:15:34.338Z,7.01
2019-03-15T05:16:34.438Z,7.02
2019-03-15T05:17:34.360Z,7.02
2019-03-15T05:18:34.409Z,7.02
2019-03-15T05:19:34.339Z,7.04
2019-03-15T05:20:34.306Z,7.01
2019-03-15T05:21:34.417Z,7.00
2019-03-15T05:22:34.414Z,6.97
2019-03-15T05:23:34.389Z,6.95
2019-03-15T05:24:34.358Z,6.94
2019-03-15T05:25:34.355Z,6.94
2019-03-15T05:26:34.407Z,6.91
2019-03-15T05:27:34.341Z,6.90
2019-03-15T05:28:34.407Z,6.89
2019-03-15T05:29:34.369Z,6.86
2019-03-15T05:30:34.410Z,6.86
2019-03-15T05:31:34.411Z,6.87
2019-03-15T05:32:34.343Z,6.94
2019-03-15T05:33:34.412Z,6.95
2019-03-15T05:34:34.410Z,6.97
2019-03-15T05:35:34.341Z,6.95
2019-03-15T05:36:34.435Z,6.94
2019-03-15T05:37:34.425Z,6.93
2019-03-15T05:38:34.968Z,6.94
2019-03-15T05:39:34.414Z,6.97
2019-03-15T05:40:34.480Z,6.98
2019-03-15T05:41:34.367Z,6.98
2019-03-15T05:42:34.362Z,6.97
2019-03-15T05:43:34.438Z,6.95
2019-03-15T05:44:34.430Z,6.95
2019-03-15T05:45:34.356Z,6.95
2019-03-15T05:46:34.348Z,6.95
2019-03-15T05:47:34.397Z,6.94
2019-03-15T05:48:34.331Z,6.94
2019-03-15T05:49:34.376Z,6.95
2019-03-15T05:50:34.353Z,6.94
2019-03-15T05:51:34.347Z,6.95
2019-03-15T05:52:34.424Z,6.95
2019-03-15T05:53:34.421Z,6.97
2019-03-15T05:54:34.425Z,7.00
2019-03-15T05:55:34.404Z,7.02
2019-03-15T05:56:34.377Z,7.05
2019-03-15T05:57:34.372Z,7.07
2019-03-15T05:58:34.437Z,7.07
2019-03-15T05:59:34.374Z,7.07
2019-03-15T06:00:34.404Z,7.05
2019-03-15T06:01:34.439Z,7.05
2019-03-15T06:02:34.440Z,7.07
2019-03-15T06:03:47.422Z,7.07
2019-03-15T06:04:34.435Z,7.08
2019-03-15T06:05:34.437Z,7.09
2019-03-15T06:06:34.373Z,7.08
2019-03-15T06:07:34.406Z,7.09
2019-03-15T06:08:34.507Z,7.09
2019-03-15T06:09:34.445Z,7.08
2019-03-15T06:10:34.444Z,7.09
2019-03-15T06:11:34.411Z,7.09
2019-03-15T06:12:34.444Z,7.11
2019-03-15T06:13:34.375Z,7.11
2019-03-15T06:14:34.385Z,7.11
2019-03-15T06:15:34.380Z,7.11
2019-03-15T06:16:34.450Z,7.12
2019-03-15T06:17:34.450Z,7.11
2019-03-15T06:18:34.402Z,7.11
2019-03-15T06:19:34.459Z,7.11
2019-03-15T06:20:34.384Z,7.11
2019-03-15T06:21:34.513Z,7.09
2019-03-15T06:22:34.383Z,7.07
2019-03-15T06:23:34.383Z,7.07
2019-03-15T06:24:34.398Z,7.04
2019-03-15T06:25:34.465Z,7.02
2019-03-15T06:26:34.460Z,7.00
2019-03-15T06:27:34.389Z,7.01
2019-03-15T06:28:34.449Z,7.00
2019-03-15T06:29:34.320Z,7.00
2019-03-15T06:30:34.452Z,7.00
2019-03-15T06:31:34.488Z,6.97
2019-03-15T06:32:34.440Z,6.98
2019-03-15T06:33:34.329Z,6.97
2019-03-15T06:34:34.442Z,6.97
2019-03-15T06:35:34.400Z,7.00
2019-03-15T06:36:34.328Z,7.00
2019-03-15T06:37:34.461Z,7.01
2019-03-15T06:38:34.407Z,7.02
2019-03-15T06:39:34.400Z,7.02
2019-03-15T06:40:34.467Z,7.01
2019-03-15T06:41:34.476Z,7.04
2019-03-15T06:42:34.464Z,7.05
2019-03-15T06:43:34.471Z,7.07
2019-03-15T06:44:37.399Z,7.08
2019-03-15T06:45:34.397Z,7.09
2019-03-15T06:46:34.403Z,7.11
2019-03-15T06:47:34.473Z,7.12
2019-03-15T06:48:34.469Z,7.12
2019-03-15T06:49:34.400Z,7.13
2019-03-15T06:50:34.473Z,7.13
2019-03-15T06:51:34.403Z,7.15
2019-03-15T06:52:34.412Z,7.13
2019-03-15T06:53:34.406Z,7.15
2019-03-15T06:54:34.476Z,7.16
2019-03-15T06:55:34.414Z,7.16
2019-03-15T06:56:34.478Z,7.18
2019-03-15T06:57:34.406Z,7.18
2019-03-15T06:58:34.469Z,7.19
2019-03-15T06:59:34.468Z,7.18
2019-03-15T07:00:34.382Z,7.19
2019-03-15T07:01:34.405Z,7.19
2019-03-15T07:02:34.404Z,7.18
2019-03-15T07:03:34.372Z,7.18
2019-03-15T07:04:34.468Z,7.16
2019-03-15T07:05:34.494Z,7.16
2019-03-15T07:06:34.389Z,7.15
2019-03-15T07:07:34.471Z,7.15
2019-03-15T07:08:34.408Z,7.15
2019-03-15T07:09:34.406Z,7.15
2019-03-15T07:10:34.476Z,7.15
2019-03-15T07:11:34.480Z,7.13
2019-03-15T07:12:34.482Z,7.11
2019-03-15T07:13:34.491Z,7.12
2019-03-15T07:14:34.483Z,7.12
2019-03-15T07:15:34.479Z,7.15
2019-03-15T07:16:34.452Z,7.15
2019-03-15T07:17:34.472Z,7.12
2019-03-15T07:18:35.447Z,7.11
2019-03-15T07:19:34.399Z,7.09
2019-03-15T07:20:34.483Z,7.07
2019-03-15T07:21:36.790Z,7.05
2019-03-15T07:22:34.484Z,7.04
2019-03-15T07:23:34.383Z,7.04
2019-03-15T07:24:34.484Z,7.02
2019-03-15T07:25:34.461Z,7.01
2019-03-15T07:26:34.473Z,7.00
2019-03-15T07:27:34.497Z,6.98
2019-03-15T07:28:34.494Z,6.97
2019-03-15T07:29:34.447Z,6.95
2019-03-15T07:30:34.507Z,6.98
2019-03-15T07:31:34.434Z,7.00
2019-03-15T07:32:34.498Z,7.00
2019-03-15T07:33:34.434Z,7.02
2019-03-15T07:34:34.506Z,7.02
2019-03-15T07:35:34.437Z,7.05
2019-03-15T07:36:37.124Z,7.07
2019-03-15T07:37:34.510Z,7.08
2019-03-15T07:38:34.513Z,7.08
2019-03-15T07:39:34.504Z,7.09
2019-03-15T07:40:34.459Z,7.11
2019-03-15T07:41:34.440Z,7.12
2019-03-15T07:42:34.437Z,7.13
2019-03-15T07:43:34.510Z,7.13
2019-03-15T07:44:34.442Z,7.13
2019-03-15T07:45:34.510Z,7.16
2019-03-15T07:46:34.521Z,7.16
2019-03-15T07:47:34.371Z,7.19
2019-03-15T07:48:34.381Z,7.19
2019-03-15T07:49:34.568Z,7.18
2019-03-15T07:50:34.400Z,7.19
2019-03-15T07:51:34.396Z,7.18
2019-03-15T07:52:34.435Z,7.20
2019-03-15T07:53:35.526Z,7.22
2019-03-15T07:54:38.224Z,7.20
2019-03-15T07:55:34.464Z,7.20
2019-03-15T07:56:34.454Z,7.22
2019-03-15T07:57:34.530Z,7.20
2019-03-15T07:58:34.518Z,7.19
2019-03-15T07:59:34.527Z,7.22
2019-03-15T08:00:34.517Z,7.22
2019-03-15T08:01:34.532Z,7.23
2019-03-15T08:02:34.531Z,7.22
2019-03-15T08:03:34.998Z,7.23
2019-03-15T08:04:35.979Z,7.23
2019-03-15T08:05:34.546Z,7.23
2019-03-15T08:06:36.257Z,7.23
2019-03-15T08:07:37.810Z,7.23
2019-03-15T08:08:34.623Z,7.23
2019-03-15T08:09:34.529Z,7.23
2019-03-15T08:10:34.464Z,7.23
2019-03-15T08:11:34.478Z,7.22
2019-03-15T08:12:34.537Z,7.26
2019-03-15T08:13:34.487Z,7.27
2019-03-15T08:14:34.529Z,7.24
2019-03-15T08:15:34.530Z,7.24
2019-03-15T08:16:34.795Z,7.24
2019-03-15T08:17:34.462Z,7.23
2019-03-15T08:18:34.497Z,7.24
2019-03-15T08:19:34.437Z,7.22
2019-03-15T08:20:34.528Z,7.22
2019-03-15T08:21:34.453Z,7.22
2019-03-15T08:22:34.530Z,7.23
2019-03-15T08:23:34.457Z,7.22
2019-03-15T08:24:36.680Z,7.22
2019-03-15T08:25:34.456Z,7.22
2019-03-15T08:26:34.461Z,7.22
2019-03-15T08:27:34.418Z,7.20
2019-03-15T08:28:34.523Z,7.20
2019-03-15T08:29:34.498Z,7.18
2019-03-15T08:30:34.460Z,7.18
2019-03-15T08:31:34.461Z,7.18
2019-03-15T08:32:34.473Z,7.16
2019-03-15T08:33:34.469Z,7.18
2019-03-15T08:34:34.433Z,7.16
2019-03-15T08:35:34.507Z,7.15
2019-03-15T08:36:34.451Z,7.16
2019-03-15T08:37:34.575Z,7.15
2019-03-15T08:38:46.773Z,7.15
2019-03-15T08:39:34.522Z,7.15
2019-03-15T08:40:34.486Z,7.09
2019-03-15T08:41:34.569Z,7.09
2019-03-15T08:42:34.868Z,7.09
2019-03-15T08:43:34.482Z,7.09
2019-03-15T08:44:34.561Z,7.11
2019-03-15T08:45:34.491Z,7.12
2019-03-15T08:46:34.484Z,7.09
2019-03-15T08:47:34.454Z,7.11
2019-03-15T08:48:34.381Z,7.09
2019-03-15T08:49:34.523Z,7.08
2019-03-15T08:50:34.413Z,7.08
2019-03-15T08:51:34.510Z,7.07
2019-03-15T08:52:34.414Z,7.05
2019-03-15T08:53:34.514Z,7.08
2019-03-15T08:54:34.499Z,7.08
2019-03-15T08:55:34.490Z,7.09
2019-03-15T08:56:34.559Z,7.08
2019-03-15T08:57:34.435Z,7.07
2019-03-15T08:58:34.516Z,7.08
2019-03-15T08:59:34.555Z,7.05
2019-03-15T09:00:34.496Z,7.07
2019-03-15T09:01:34.557Z,7.07
2019-03-15T09:02:34.561Z,7.07
2019-03-15T09:03:34.775Z,7.07
2019-03-15T09:04:34.485Z,7.08
2019-03-15T09:05:34.489Z,7.08
2019-03-15T09:06:34.531Z,7.08
2019-03-15T09:07:34.569Z,7.09
2019-03-15T09:08:37.227Z,7.11
2019-03-15T09:09:35.919Z,7.12
2019-03-15T09:10:34.570Z,7.07
2019-03-15T09:11:34.582Z,7.08
2019-03-15T09:12:34.640Z,7.07
2019-03-15T09:13:34.572Z,7.09
2019-03-15T09:14:34.583Z,7.12
2019-03-15T09:15:34.526Z,7.13
2019-03-15T09:16:34.521Z,7.15
2019-03-15T09:17:34.584Z,7.15
2019-03-15T09:18:34.580Z,7.15
2019-03-15T09:19:34.620Z,7.18
2019-03-15T09:20:34.580Z,7.16
2019-03-15T09:21:34.511Z,7.16
2019-03-15T09:22:37.730Z,7.15
2019-03-15T09:23:34.580Z,7.12
2019-03-15T09:24:34.578Z,7.15
2019-03-15T09:25:34.592Z,7.16
2019-03-15T09:26:34.586Z,7.18
2019-03-15T09:27:34.656Z,7.18
2019-03-15T09:28:34.516Z,7.19
2019-03-15T09:29:34.516Z,7.19
2019-03-15T09:30:34.676Z,7.18
2019-03-15T09:31:46.947Z,7.18
2019-03-15T09:32:34.584Z,7.22
2019-03-15T09:33:34.518Z,7.23
2019-03-15T09:34:34.585Z,7.23
2019-03-15T09:35:34.551Z,7.24
2019-03-15T09:36:34.592Z,7.26
2019-03-15T09:37:34.588Z,7.26
2019-03-15T09:38:34.597Z,7.23
2019-03-15T09:39:34.524Z,7.22
2019-03-15T09:40:34.598Z,7.20
2019-03-15T09:41:39.912Z,7.18
2019-03-15T09:42:34.531Z,7.15
2019-03-15T09:43:34.645Z,7.16
2019-03-15T09:44:37.435Z,7.16
2019-03-15T09:45:34.489Z,7.18
2019-03-15T09:46:34.598Z,7.15
2019-03-15T09:47:34.528Z,7.16
2019-03-15T09:48:34.597Z,7.19
2019-03-15T09:49:34.531Z,7.22
2019-03-15T09:50:50.191Z,7.22
2019-03-15T09:51:34.536Z,7.23
2019-03-15T09:52:34.533Z,7.26
2019-03-15T09:53:34.601Z,7.31
2019-03-15T09:54:34.605Z,7.27
2019-03-15T09:55:34.540Z,7.29
2019-03-15T09:56:34.603Z,7.24
2019-03-15T09:57:34.555Z,7.24
2019-03-15T09:58:34.549Z,7.24
2019-03-15T09:59:34.492Z,7.30
2019-03-15T10:00:34.532Z,7.29
2019-03-15T10:01:35.582Z,7.29
2019-03-15T10:02:34.561Z,7.37
2019-03-15T10:03:34.511Z,7.35
2019-03-15T10:04:36.037Z,7.34
2019-03-15T10:05:34.533Z,7.29
2019-03-15T10:06:34.511Z,7.31
2019-03-15T10:07:38.821Z,7.31
2019-03-15T10:08:34.529Z,7.35
2019-03-15T10:09:45.355Z,7.35
2019-03-15T10:10:34.533Z,7.37
2019-03-15T10:11:34.608Z,7.38
2019-03-15T10:12:34.610Z,7.41
2019-03-15T10:13:34.613Z,7.37
2019-03-15T10:14:34.533Z,7.41
2019-03-15T10:15:34.639Z,7.44
2019-03-15T10:16:34.545Z,7.45
2019-03-15T10:17:34.545Z,7.45
2019-03-15T10:18:34.491Z,7.45
2019-03-15T10:19:34.489Z,7.46
2019-03-15T10:20:34.530Z,7.46
2019-03-15T10:21:34.615Z,7.45
2019-03-15T10:22:34.616Z,7.46
2019-03-15T10:23:34.505Z,7.48
2019-03-15T10:24:34.530Z,7.45
2019-03-15T10:25:45.917Z,7.46
2019-03-15T10:26:34.561Z,7.48
2019-03-15T10:27:34.566Z,7.52
2019-03-15T10:28:34.629Z,7.48
2019-03-15T10:29:34.561Z,7.49
2019-03-15T10:30:34.560Z,7.41
2019-03-15T10:31:34.641Z,7.33
2019-03-15T10:32:34.628Z,7.29
2019-03-15T10:33:34.566Z,7.27
2019-03-15T10:34:35.762Z,7.22
2019-03-15T10:35:34.577Z,7.20
2019-03-15T10:36:34.909Z,7.16
2019-03-15T10:37:34.568Z,7.18
2019-03-15T10:38:34.565Z,7.16
2019-03-15T10:39:34.633Z,7.18
2019-03-15T10:40:34.639Z,7.19
2019-03-15T10:41:37.957Z,7.20
2019-03-15T10:42:34.639Z,7.23
2019-03-15T10:43:34.675Z,7.24
2019-03-15T10:44:34.644Z,7.23
2019-03-15T10:45:34.643Z,7.23
2019-03-15T10:46:34.614Z,7.24
2019-03-15T10:47:34.548Z,7.24
2019-03-15T10:48:34.632Z,7.24
2019-03-15T10:49:34.558Z,7.23
2019-03-15T10:50:34.585Z,7.24
2019-03-15T10:51:34.520Z,7.27
2019-03-15T10:52:34.589Z,7.26
2019-03-15T10:53:34.563Z,7.26
2019-03-15T10:54:34.638Z,7.24
2019-03-15T10:55:34.637Z,7.24
2019-03-15T10:56:34.578Z,7.23
2019-03-15T10:57:34.579Z,7.26
2019-03-15T10:58:34.579Z,7.23
2019-03-15T10:59:34.586Z,7.24
2019-03-15T11:00:34.608Z,7.26
2019-03-15T11:01:34.593Z,7.24
2019-03-15T11:02:34.585Z,7.20
2019-03-15T11:03:34.656Z,7.22
2019-03-15T11:04:34.655Z,7.22
2019-03-15T11:05:34.590Z,7.20
2019-03-15T11:06:34.558Z,7.23
2019-03-15T11:07:34.655Z,7.23
2019-03-15T11:08:34.655Z,7.24
2019-03-15T11:09:34.656Z,7.23
2019-03-15T11:10:34.655Z,7.24
2019-03-15T11:11:34.660Z,7.24
2019-03-15T11:12:34.634Z,7.27
2019-03-15T11:13:34.663Z,7.26
2019-03-15T11:14:34.662Z,7.29
2019-03-15T11:15:34.670Z,7.29
2019-03-15T11:16:34.595Z,7.31
2019-03-15T11:17:34.615Z,7.34
2019-03-15T11:18:34.663Z,7.34
2019-03-15T11:19:34.596Z,7.37
2019-03-15T11:20:34.663Z,7.38
2019-03-15T11:21:34.617Z,7.42
2019-03-15T11:22:34.666Z,7.44
2019-03-15T11:23:34.600Z,7.44
2019-03-15T11:24:34.664Z,7.45
2019-03-15T11:25:34.616Z,7.49
2019-03-15T11:26:34.670Z,7.51
2019-03-15T11:27:34.599Z,7.53
2019-03-15T11:28:34.682Z,7.53
2019-03-15T11:29:34.603Z,7.55
2019-03-15T11:30:34.672Z,7.59
2019-03-15T11:31:34.671Z,7.60
2019-03-15T11:32:34.671Z,7.63
2019-03-15T11:33:34.619Z,7.67
2019-03-15T11:34:34.602Z,7.68
2019-03-15T11:35:34.604Z,7.71
2019-03-15T11:36:34.678Z,7.71
2019-03-15T11:37:34.578Z,7.72
2019-03-15T11:38:34.602Z,7.75
2019-03-15T11:39:34.601Z,7.71
2019-03-15T11:40:37.807Z,7.76
2019-03-15T11:41:34.664Z,7.78
2019-03-15T11:42:34.670Z,7.81
2019-03-15T11:43:34.667Z,7.85
2019-03-15T11:44:34.601Z,7.86
2019-03-15T11:45:34.683Z,7.85
2019-03-15T11:46:34.629Z,7.87
2019-03-15T11:47:50.241Z,7.90
2019-03-15T11:48:34.678Z,7.93
2019-03-15T11:49:34.606Z,7.99
2019-03-15T11:50:34.606Z,8.02
2019-03-15T11:51:34.698Z,8.04
2019-03-15T11:52:34.679Z,8.08
2019-03-15T11:53:34.567Z,8.13
2019-03-15T11:54:34.604Z,8.15
2019-03-15T11:55:34.676Z,8.19
2019-03-15T11:56:34.677Z,8.23
2019-03-15T11:57:34.614Z,8.28
2019-03-15T11:58:34.697Z,8.31
2019-03-15T11:59:36.222Z,8.31
2019-03-15T12:00:34.680Z,8.34
2019-03-15T12:01:37.605Z,8.38
2019-03-15T12:02:34.688Z,8.45
2019-03-15T12:03:34.626Z,8.46
2019-03-15T12:04:34.625Z,8.50
2019-03-15T12:05:34.613Z,8.56
2019-03-15T12:06:34.603Z,8.57
2019-03-15T12:07:34.629Z,8.61
2019-03-15T12:08:34.697Z,8.62
2019-03-15T12:09:34.704Z,8.65
2019-03-15T12:10:34.634Z,8.67
2019-03-15T12:11:34.727Z,8.67
2019-03-15T12:12:34.699Z,8.68
2019-03-15T12:13:34.634Z,8.71
2019-03-15T12:14:40.815Z,8.72
2019-03-15T12:15:36.380Z,8.74
2019-03-15T12:16:34.703Z,8.76
2019-03-15T12:17:34.708Z,8.83
2019-03-15T12:18:34.708Z,8.87
2019-03-15T12:19:34.704Z,8.89
2019-03-15T12:20:34.712Z,8.91
2019-03-15T12:21:34.649Z,8.97
2019-03-15T12:22:34.637Z,9.00
2019-03-15T12:23:34.707Z,9.01
2019-03-15T12:24:34.734Z,9.04
2019-03-15T12:25:34.645Z,9.09
2019-03-15T12:26:40.158Z,9.11
2019-03-15T12:27:34.644Z,9.13
2019-03-15T12:28:34.649Z,9.16
2019-03-15T12:29:34.647Z,9.23
2019-03-15T12:30:34.647Z,9.30
2019-03-15T12:31:34.665Z,9.34
2019-03-15T12:32:34.723Z,9.43
2019-03-15T12:33:34.660Z,9.51
2019-03-15T12:34:34.651Z,9.55
2019-03-15T12:35:34.714Z,9.65
2019-03-15T12:36:34.717Z,9.78
2019-03-15T12:37:34.651Z,9.86
2019-03-15T12:38:34.606Z,9.91
2019-03-15T12:39:34.723Z,10.06
2019-03-15T12:40:34.653Z,10.20
2019-03-15T12:41:34.655Z,10.36
2019-03-15T12:42:34.670Z,10.46
2019-03-15T12:43:34.655Z,10.54
2019-03-15T12:44:34.660Z,10.61
2019-03-15T12:45:34.721Z,10.65
2019-03-15T12:46:34.660Z,10.71
2019-03-15T12:47:34.740Z,10.75
2019-03-15T12:48:34.720Z,10.83
2019-03-15T12:49:34.718Z,10.91
2019-03-15T12:50:34.696Z,10.95
2019-03-15T12:51:34.632Z,10.97
2019-03-15T12:52:46.572Z,10.97
2019-03-15T12:53:34.656Z,11.00
2019-03-15T12:54:34.614Z,11.02
2019-03-15T12:55:34.721Z,11.05
2019-03-15T12:56:34.609Z,11.05
2019-03-15T12:57:34.721Z,11.10
2019-03-15T12:58:34.681Z,11.16
2019-03-15T12:59:34.744Z,11.24
2019-03-15T13:00:34.681Z,11.31
2019-03-15T13:01:34.748Z,11.40
2019-03-15T13:02:34.671Z,11.46
2019-03-15T13:03:34.734Z,11.51
2019-03-15T13:04:34.750Z,11.58
2019-03-15T13:05:34.692Z,11.65
2019-03-15T13:06:34.739Z,11.71
2019-03-15T13:07:34.742Z,11.75
2019-03-15T13:08:34.736Z,11.78
2019-03-15T13:09:34.684Z,11.76
2019-03-15T13:10:34.746Z,11.82
2019-03-15T13:11:34.774Z,11.83
2019-03-15T13:12:34.678Z,11.86
2019-03-15T13:13:34.760Z,11.92
2019-03-15T13:14:34.706Z,11.92
2019-03-15T13:15:34.677Z,11.95
2019-03-15T13:16:34.754Z,11.95
2019-03-15T13:17:34.743Z,11.97